Terminal Aerodrome Forecast
Issued by NWS

Home | Current Version | Previous Version | Text Only | Print | Product List | Glossary On
Versions: 1 2 3 4 5 6 7 8 9 10 11 12 13 14 15 16 17 18 19 20 21 22 23 24 25 26 27 28
000
FTUS43 KAPX 301310 AAB
TAFPLN
TAF AMD
KPLN 301310Z 3013/3112 00000KT P6SM BKN006
     FM301430 VRB03KT P6SM BKN015
     FM301700 25006KT P6SM SCT035
     FM310100 00000KT P6SM SKC
      TEMPO 3108/3112 3SM BR=

USA.gov is the U.S. government's official web portal to all federal, state and local government web resources and services.